Terminal Aerodrome Forecast
Issued by NWS St Louis, MO

Home | Current Version | Previous Version | Text Only | Print | Product List | Glossary On
Versions: 1 2 3 4 5 6 7 8 9 10 11 12 13 14 15
000
FTUS43 KLSX 222325
TAFCOU
TAF
KCOU 222325Z 2300/2324 16007KT P6SM BKN060
     FM230900 20005KT P6SM VCTS BKN030CB
      TEMPO 2309/2312 5SM -TSRA BKN025CB
     FM231200 31009KT P6SM VCSH BKN015
     FM231600 35011G19KT P6SM BKN025
     FM231800 36012G20KT P6SM SCT060=

USA.gov is the U.S. government's official web portal to all federal, state and local government web resources and services.